createdAt,value
2017-12-22T00:00:13.212Z,996.2
2017-12-22T00:01:15.744Z,996
2017-12-22T00:02:18.183Z,996.2
2017-12-22T00:03:20.644Z,996.3
2017-12-22T00:04:23.115Z,996.2
2017-12-22T00:05:25.587Z,996.2
2017-12-22T00:06:27.987Z,996.2
2017-12-22T00:07:30.386Z,996.2
2017-12-22T00:08:32.841Z,996.2
2017-12-22T00:09:35.201Z,996.2
2017-12-22T00:10:37.702Z,996.2
2017-12-22T00:11:40.139Z,996.2
2017-12-22T00:12:42.639Z,996.1
2017-12-22T00:13:45.028Z,996
2017-12-22T00:14:47.513Z,996.2
2017-12-22T00:15:49.961Z,996.1
2017-12-22T00:16:52.360Z,996.1
2017-12-22T00:17:54.783Z,996.1
2017-12-22T00:18:57.196Z,996.1
2017-12-22T00:19:59.638Z,996.1
2017-12-22T00:21:02.096Z,996
2017-12-22T00:22:04.484Z,996.1
2017-12-22T00:23:06.936Z,996.1
2017-12-22T00:24:09.420Z,996.1
2017-12-22T00:25:11.832Z,996
2017-12-22T00:26:14.398Z,996.1
2017-12-22T00:27:16.955Z,996
2017-12-22T00:28:19.411Z,996.1
2017-12-22T00:29:21.890Z,996.1
2017-12-22T00:30:24.272Z,996
2017-12-22T00:31:26.784Z,996
2017-12-22T00:32:32.167Z,996
2017-12-22T00:33:34.556Z,996
2017-12-22T00:34:36.956Z,996
2017-12-22T00:35:39.370Z,996
2017-12-22T00:36:41.836Z,996
2017-12-22T00:37:45.570Z,996
2017-12-22T00:38:48.030Z,996
2017-12-22T00:39:50.531Z,996
2017-12-22T00:40:52.915Z,996
2017-12-22T00:41:55.352Z,996
2017-12-22T00:42:57.770Z,996
2017-12-22T00:44:00.184Z,996
2017-12-22T00:45:02.570Z,996
2017-12-22T00:46:04.963Z,996
2017-12-22T00:47:07.803Z,996
2017-12-22T00:48:10.234Z,996
2017-12-22T00:49:12.918Z,995.9
2017-12-22T00:50:15.344Z,995.9
2017-12-22T00:51:17.773Z,996
2017-12-22T00:52:20.867Z,995.7
2017-12-22T00:53:23.320Z,995.9
2017-12-22T00:54:25.767Z,995.9
2017-12-22T00:55:28.245Z,995.9
2017-12-22T00:56:30.710Z,995.9
2017-12-22T00:57:33.082Z,996
2017-12-22T00:58:35.548Z,995.8
2017-12-22T00:59:38.010Z,996
2017-12-22T01:00:40.421Z,996
2017-12-22T01:01:42.812Z,996.1
2017-12-22T01:02:45.279Z,996
2017-12-22T01:03:47.766Z,996.1
2017-12-22T01:04:50.164Z,995.7
2017-12-22T01:05:52.556Z,996.1
2017-12-22T01:06:55.079Z,996
2017-12-22T01:07:57.608Z,996
2017-12-22T01:09:00.098Z,996
2017-12-22T01:10:02.594Z,996.1
2017-12-22T01:11:05.004Z,996
2017-12-22T01:12:07.565Z,996.1
2017-12-22T01:13:09.965Z,996.1
2017-12-22T01:14:12.344Z,996.1
2017-12-22T01:15:14.731Z,996
2017-12-22T01:16:17.158Z,995.8
2017-12-22T01:17:19.525Z,996.1
2017-12-22T01:18:21.979Z,996.1
2017-12-22T01:19:24.411Z,996
2017-12-22T01:20:26.781Z,996
2017-12-22T01:21:29.234Z,996
2017-12-22T01:22:32.162Z,996
2017-12-22T01:23:34.570Z,996
2017-12-22T01:24:36.991Z,996
2017-12-22T01:25:39.479Z,996
2017-12-22T01:26:42.043Z,996
2017-12-22T01:27:44.464Z,996.1
2017-12-22T01:28:46.864Z,996
2017-12-22T01:29:49.381Z,995.8
2017-12-22T01:30:51.739Z,996.1
2017-12-22T01:31:54.313Z,996.1
2017-12-22T01:32:56.780Z,996.1
2017-12-22T01:33:59.384Z,996
2017-12-22T01:35:02.868Z,996
2017-12-22T01:36:05.314Z,996
2017-12-22T01:37:07.796Z,996.1
2017-12-22T01:38:10.328Z,996.1
2017-12-22T01:39:12.840Z,996
2017-12-22T01:40:15.271Z,996.1
2017-12-22T01:41:19.452Z,995.9
2017-12-22T01:42:21.952Z,996.1
2017-12-22T01:43:24.564Z,996.1
2017-12-22T01:44:27.036Z,996
2017-12-22T01:45:29.508Z,996.1
2017-12-22T01:46:31.991Z,996
2017-12-22T01:47:35.007Z,995.9
2017-12-22T01:48:37.402Z,996
2017-12-22T01:49:39.883Z,996
2017-12-22T01:50:42.316Z,995.9
2017-12-22T01:51:44.766Z,996
2017-12-22T01:52:47.206Z,996
2017-12-22T01:53:49.681Z,996
2017-12-22T01:54:52.114Z,996.1
2017-12-22T01:55:54.552Z,996.1
2017-12-22T01:56:57.024Z,996.1
2017-12-22T01:57:59.458Z,996.1
2017-12-22T01:59:01.916Z,996.1
2017-12-22T02:00:04.339Z,996.1
2017-12-22T02:01:06.767Z,996.1
2017-12-22T02:02:09.176Z,996.2
2017-12-22T02:03:11.568Z,996.2
2017-12-22T02:04:14.014Z,996.1
2017-12-22T02:05:16.612Z,996.1
2017-12-22T02:06:19.743Z,996.1
2017-12-22T02:07:22.207Z,996
2017-12-22T02:08:24.612Z,996
2017-12-22T02:09:27.027Z,996
2017-12-22T02:10:29.473Z,996
2017-12-22T02:11:31.867Z,996
2017-12-22T02:12:35.197Z,995.8
2017-12-22T02:13:37.619Z,996
2017-12-22T02:14:40.037Z,995.9
2017-12-22T02:15:42.583Z,995.9
2017-12-22T02:16:44.975Z,995.8
2017-12-22T02:17:47.426Z,995.9
2017-12-22T02:18:49.897Z,995.9
2017-12-22T02:19:52.386Z,995.8
2017-12-22T02:20:54.919Z,995.9
2017-12-22T02:21:58.568Z,995.6
2017-12-22T02:23:00.978Z,995.7
2017-12-22T02:24:03.491Z,995.8
2017-12-22T02:25:05.978Z,995.7
2017-12-22T02:26:08.477Z,995.7
2017-12-22T02:27:10.891Z,995.7
2017-12-22T02:28:13.342Z,995.7
2017-12-22T02:29:15.682Z,995.7
2017-12-22T02:30:18.187Z,995.7
2017-12-22T02:31:20.630Z,995.7
2017-12-22T02:32:23.051Z,995.7
2017-12-22T02:33:25.498Z,995.7
2017-12-22T02:34:27.927Z,995.7
2017-12-22T02:35:30.390Z,995.7
2017-12-22T02:36:32.831Z,995.7
2017-12-22T02:37:35.236Z,995.7
2017-12-22T02:38:37.736Z,995.7
2017-12-22T02:39:40.154Z,995.7
2017-12-22T02:40:42.596Z,995.7
2017-12-22T02:41:45.073Z,995.6
2017-12-22T02:42:47.612Z,995.7
2017-12-22T02:43:50.060Z,995.7
2017-12-22T02:44:52.512Z,995.7
2017-12-22T02:45:54.901Z,995.7
2017-12-22T02:46:57.313Z,995.7
2017-12-22T02:47:59.781Z,995.7
2017-12-22T02:49:02.251Z,995.7
2017-12-22T02:50:04.745Z,995.7
2017-12-22T02:51:07.454Z,995.7
2017-12-22T02:52:09.975Z,995.7
2017-12-22T02:53:12.399Z,995.7
2017-12-22T02:54:14.804Z,995.6
2017-12-22T02:55:17.231Z,995.7
2017-12-22T02:56:19.856Z,995.6
2017-12-22T02:57:22.328Z,995.6
2017-12-22T02:58:24.676Z,995.7
2017-12-22T02:59:27.124Z,995.6
2017-12-22T03:00:29.537Z,995.6
2017-12-22T03:01:31.981Z,995.6
2017-12-22T03:02:34.406Z,995.6
2017-12-22T03:03:36.830Z,995.6
2017-12-22T03:04:39.284Z,995.6
2017-12-22T03:05:41.687Z,995.6
2017-12-22T03:06:44.164Z,995.6
2017-12-22T03:07:46.609Z,995.6
2017-12-22T03:08:49.130Z,995.6
2017-12-22T03:09:51.551Z,995.6
2017-12-22T03:10:54.020Z,995.6
2017-12-22T03:11:56.770Z,995.6
2017-12-22T03:12:59.176Z,995.6
2017-12-22T03:14:01.730Z,995.4
2017-12-22T03:15:04.086Z,995.5
2017-12-22T03:16:06.536Z,995.5
2017-12-22T03:17:09.030Z,995.3
2017-12-22T03:18:11.595Z,995.5
2017-12-22T03:19:14.086Z,995.5
2017-12-22T03:20:16.593Z,995.5
2017-12-22T03:21:19.077Z,995.4
2017-12-22T03:22:21.556Z,995.4
2017-12-22T03:23:24.072Z,995.4
2017-12-22T03:24:26.466Z,995.4
2017-12-22T03:25:28.931Z,995.4
2017-12-22T03:26:31.402Z,995.4
2017-12-22T03:27:33.796Z,995.4
2017-12-22T03:28:36.242Z,995.4
2017-12-22T03:29:38.659Z,995.4
2017-12-22T03:30:41.069Z,995.2
2017-12-22T03:31:43.474Z,995.4
2017-12-22T03:32:46.018Z,995.3
2017-12-22T03:33:48.527Z,995.3
2017-12-22T03:34:50.903Z,995.3
2017-12-22T03:35:53.278Z,995.3
2017-12-22T03:36:55.713Z,995.3
2017-12-22T03:37:58.126Z,995.3
2017-12-22T03:39:00.910Z,995.3
2017-12-22T03:40:03.389Z,995.3
2017-12-22T03:41:05.980Z,995.3
2017-12-22T03:42:08.417Z,995.4
2017-12-22T03:43:10.896Z,995.4
2017-12-22T03:44:13.287Z,995.2
2017-12-22T03:45:15.718Z,995.2
2017-12-22T03:46:18.169Z,995
2017-12-22T03:47:20.562Z,995.1
2017-12-22T03:48:23.010Z,995.1
2017-12-22T03:49:25.464Z,995.2
2017-12-22T03:50:27.808Z,995.2
2017-12-22T03:51:31.523Z,995.2
2017-12-22T03:52:33.923Z,995.2
2017-12-22T03:53:36.343Z,995.2
2017-12-22T03:54:38.794Z,995.2
2017-12-22T03:55:41.261Z,995.2
2017-12-22T03:56:43.691Z,995.2
2017-12-22T03:57:46.303Z,995.2
2017-12-22T03:58:48.702Z,995.2
2017-12-22T03:59:51.273Z,995.2
2017-12-22T04:00:53.682Z,995.2
2017-12-22T04:01:56.094Z,995.2
2017-12-22T04:02:58.553Z,995.2
2017-12-22T04:04:00.980Z,995.2
2017-12-22T04:05:03.481Z,995.2
2017-12-22T04:06:05.866Z,995.2
2017-12-22T04:07:08.303Z,995.2
2017-12-22T04:08:10.748Z,995.2
2017-12-22T04:09:13.148Z,995.2
2017-12-22T04:10:15.734Z,995.1
2017-12-22T04:11:18.738Z,995.1
2017-12-22T04:12:21.166Z,995.2
2017-12-22T04:13:24.212Z,995.2
2017-12-22T04:14:26.665Z,995.2
2017-12-22T04:15:29.143Z,995.1
2017-12-22T04:16:32.265Z,995
2017-12-22T04:17:34.652Z,995.2
2017-12-22T04:18:37.150Z,995.2
2017-12-22T04:19:39.531Z,995.2
2017-12-22T04:20:42.027Z,995
2017-12-22T04:21:44.886Z,995.2
2017-12-22T04:22:47.320Z,995.1
2017-12-22T04:23:49.751Z,995.1
2017-12-22T04:24:52.230Z,995.1
2017-12-22T04:25:54.680Z,995.1
2017-12-22T04:26:57.080Z,995.2
2017-12-22T04:27:59.527Z,995.1
2017-12-22T04:29:02.174Z,995.2
2017-12-22T04:30:04.600Z,995.2
2017-12-22T04:31:06.984Z,995.2
2017-12-22T04:32:09.435Z,995.2
2017-12-22T04:33:11.858Z,995.2
2017-12-22T04:34:14.249Z,995.2
2017-12-22T04:35:16.658Z,995.3
2017-12-22T04:36:19.110Z,995.2
2017-12-22T04:37:21.512Z,995.2
2017-12-22T04:38:23.949Z,995.3
2017-12-22T04:39:26.369Z,995.2
2017-12-22T04:40:28.828Z,995.2
2017-12-22T04:41:31.248Z,995.2
2017-12-22T04:42:33.616Z,995.2
2017-12-22T04:43:36.145Z,995.2
2017-12-22T04:44:38.576Z,995.3
2017-12-22T04:45:40.968Z,995.2
2017-12-22T04:46:43.372Z,995.2
2017-12-22T04:47:45.773Z,995.3
2017-12-22T04:48:48.249Z,995.2
2017-12-22T04:49:50.666Z,995.2
2017-12-22T04:50:53.066Z,995.2
2017-12-22T04:51:55.492Z,995.3
2017-12-22T04:52:57.867Z,995.3
2017-12-22T04:54:00.234Z,995.3
2017-12-22T04:55:02.689Z,995.3
2017-12-22T04:56:05.144Z,995.3
2017-12-22T04:57:07.667Z,995.3
2017-12-22T04:58:10.405Z,995.3
2017-12-22T04:59:12.845Z,995.3
2017-12-22T05:00:15.318Z,995.3
2017-12-22T05:01:17.905Z,995.4
2017-12-22T05:02:20.398Z,995.4
2017-12-22T05:03:22.806Z,995.4
2017-12-22T05:04:25.221Z,995.4
2017-12-22T05:05:27.711Z,995.3
2017-12-22T05:06:30.160Z,995.5
2017-12-22T05:07:32.547Z,995.4
2017-12-22T05:08:34.936Z,995.4
2017-12-22T05:09:37.398Z,995.5
2017-12-22T05:10:39.897Z,995.5
2017-12-22T05:11:42.986Z,995.3
2017-12-22T05:12:45.799Z,995.5
2017-12-22T05:13:48.254Z,995.5
2017-12-22T05:14:50.711Z,995.5
2017-12-22T05:15:53.106Z,995.5
2017-12-22T05:16:55.501Z,995.6
2017-12-22T05:17:58.148Z,995.5
2017-12-22T05:19:00.618Z,995.5
2017-12-22T05:20:03.019Z,995.5
2017-12-22T05:21:05.489Z,995.5
2017-12-22T05:22:07.927Z,995.5
2017-12-22T05:23:10.352Z,995.4
2017-12-22T05:24:12.817Z,995.3
2017-12-22T05:25:15.278Z,995.5
2017-12-22T05:26:17.747Z,995.6
2017-12-22T05:27:20.219Z,995.5
2017-12-22T05:28:22.629Z,995.6
2017-12-22T05:29:25.054Z,995.5
2017-12-22T05:30:27.423Z,995.6
2017-12-22T05:31:29.942Z,995.5
2017-12-22T05:32:32.429Z,995.5
2017-12-22T05:33:34.854Z,995.5
2017-12-22T05:34:37.294Z,995.5
2017-12-22T05:35:40.324Z,995.5
2017-12-22T05:36:42.741Z,995.6
2017-12-22T05:37:45.156Z,995.5
2017-12-22T05:38:47.619Z,995.6
2017-12-22T05:39:50.092Z,995.6
2017-12-22T05:40:52.470Z,995.6
2017-12-22T05:41:54.913Z,995.6
2017-12-22T05:42:57.328Z,995.6
2017-12-22T05:43:59.867Z,995.6
2017-12-22T05:45:02.276Z,995.6
2017-12-22T05:46:04.679Z,995.6
2017-12-22T05:47:07.168Z,995.6
2017-12-22T05:48:09.649Z,995.6
2017-12-22T05:49:12.038Z,995.6
2017-12-22T05:50:14.519Z,995.6
2017-12-22T05:51:17.847Z,995.7
2017-12-22T05:52:20.435Z,995.5
2017-12-22T05:53:22.862Z,995.6
2017-12-22T05:54:25.327Z,995.6
2017-12-22T05:55:27.743Z,995.5
2017-12-22T05:56:30.174Z,995.6
2017-12-22T05:57:32.694Z,995.5
2017-12-22T05:58:35.386Z,995.5
2017-12-22T05:59:38.036Z,995.5
2017-12-22T06:00:41.180Z,995.5
2017-12-22T06:01:43.631Z,995.5
2017-12-22T06:02:46.006Z,995.6
2017-12-22T06:03:48.726Z,995.5
2017-12-22T06:04:51.116Z,995.6
2017-12-22T06:05:53.499Z,995.6
2017-12-22T06:06:55.900Z,995.6
2017-12-22T06:07:58.351Z,995.6
2017-12-22T06:09:00.914Z,995.6
2017-12-22T06:10:03.305Z,995.6
2017-12-22T06:11:05.728Z,995.6
2017-12-22T06:12:08.127Z,995.6
2017-12-22T06:13:10.505Z,995.6
2017-12-22T06:14:12.874Z,995.6
2017-12-22T06:15:15.292Z,995.6
2017-12-22T06:16:17.704Z,995.6
2017-12-22T06:17:20.176Z,995.6
2017-12-22T06:18:22.581Z,995.5
2017-12-22T06:19:24.998Z,995.5
2017-12-22T06:20:27.458Z,995.5
2017-12-22T06:21:29.996Z,995.5
2017-12-22T06:22:32.364Z,995.5
2017-12-22T06:23:34.828Z,995.5
2017-12-22T06:24:37.245Z,995.6
2017-12-22T06:25:39.659Z,995.5
2017-12-22T06:26:42.095Z,995.2
2017-12-22T06:27:46.768Z,995.6
2017-12-22T06:28:49.389Z,995.6
2017-12-22T06:29:51.845Z,995.6
2017-12-22T06:30:54.385Z,995.4
2017-12-22T06:31:56.751Z,995.4
2017-12-22T06:32:59.157Z,995.6
2017-12-22T06:34:01.643Z,995.6
2017-12-22T06:35:04.081Z,995.6
2017-12-22T06:36:06.638Z,995.6
2017-12-22T06:37:09.218Z,995.5
2017-12-22T06:38:11.761Z,995.7
2017-12-22T06:39:14.301Z,995.7
2017-12-22T06:40:16.784Z,995.7
2017-12-22T06:41:19.270Z,995.7
2017-12-22T06:42:21.706Z,995.7
2017-12-22T06:43:24.138Z,995.7
2017-12-22T06:44:26.595Z,995.7
2017-12-22T06:45:29.138Z,995.5
2017-12-22T06:46:31.602Z,995.7
2017-12-22T06:47:34.042Z,995.7
2017-12-22T06:48:36.497Z,995.7
2017-12-22T06:49:39.016Z,995.5
2017-12-22T06:50:41.454Z,995.7
2017-12-22T06:51:43.955Z,995.7
2017-12-22T06:52:46.852Z,995.7
2017-12-22T06:53:49.279Z,995.7
2017-12-22T06:54:51.790Z,995.6
2017-12-22T06:55:54.217Z,995.7
2017-12-22T06:56:56.719Z,995.7
2017-12-22T06:57:59.274Z,995.7
2017-12-22T06:59:01.748Z,995.7
2017-12-22T07:00:04.277Z,995.7
2017-12-22T07:01:06.706Z,995.7
2017-12-22T07:02:09.269Z,995.7
2017-12-22T07:03:11.775Z,995.7
2017-12-22T07:04:14.213Z,995.7
2017-12-22T07:05:16.642Z,995.7
2017-12-22T07:06:19.101Z,995.8
2017-12-22T07:07:21.517Z,995.8
2017-12-22T07:08:23.892Z,995.8
2017-12-22T07:09:26.329Z,995.7
2017-12-22T07:10:28.814Z,995.8
2017-12-22T07:11:31.281Z,995.8
2017-12-22T07:12:34.392Z,995.8
2017-12-22T07:13:36.795Z,995.8
2017-12-22T07:14:39.297Z,995.8
2017-12-22T07:15:41.766Z,995.8
2017-12-22T07:16:44.149Z,995.8
2017-12-22T07:17:47.346Z,995.8
2017-12-22T07:18:49.758Z,995.8
2017-12-22T07:19:53.627Z,995.8
2017-12-22T07:20:56.633Z,995.6
2017-12-22T07:21:59.103Z,995.8
2017-12-22T07:23:01.562Z,995.8
2017-12-22T07:24:06.376Z,995.8
2017-12-22T07:25:09.078Z,995.9
2017-12-22T07:26:15.005Z,995.8
2017-12-22T07:27:17.470Z,995.8
2017-12-22T07:28:20.018Z,995.8
2017-12-22T07:29:22.484Z,995.8
2017-12-22T07:30:25.814Z,995.8
2017-12-22T07:31:30.073Z,995.5
2017-12-22T07:32:32.500Z,995.8
2017-12-22T07:33:35.588Z,995.8
2017-12-22T07:34:38.302Z,995.8
2017-12-22T07:35:40.930Z,995.9
2017-12-22T07:36:45.660Z,995.7
2017-12-22T07:37:48.149Z,995.8
2017-12-22T07:38:50.562Z,995.8
2017-12-22T07:39:53.062Z,995.8
2017-12-22T07:40:55.451Z,995.7
2017-12-22T07:41:58.008Z,995.8
2017-12-22T07:43:00.704Z,995.6
2017-12-22T07:44:03.196Z,995.8
2017-12-22T07:45:05.695Z,995.7
2017-12-22T07:46:08.201Z,995.7
2017-12-22T07:47:10.718Z,995.7
2017-12-22T07:48:13.132Z,995.7
2017-12-22T07:49:21.565Z,995.7
2017-12-22T07:50:32.950Z,995.7
2017-12-22T07:51:36.650Z,995.7
2017-12-22T07:52:39.237Z,995.7
2017-12-22T07:53:48.595Z,995.7
2017-12-22T07:54:55.572Z,995.7
2017-12-22T07:56:02.208Z,995.6
2017-12-22T07:57:11.072Z,995.5
2017-12-22T07:58:13.533Z,995.7
2017-12-22T07:59:16.102Z,995.6
2017-12-22T08:00:18.544Z,995.7
2017-12-22T08:01:23.573Z,995.7
2017-12-22T08:02:26.022Z,995.7
2017-12-22T08:03:28.463Z,995.7
2017-12-22T08:04:30.986Z,995.7
2017-12-22T08:05:33.495Z,995.6
2017-12-22T08:06:35.888Z,995.6
2017-12-22T08:07:38.479Z,995.6
2017-12-22T08:08:41.121Z,995.6
2017-12-22T08:09:43.702Z,995.6
2017-12-22T08:10:46.148Z,995.6
2017-12-22T08:11:48.795Z,995.6
2017-12-22T08:12:51.211Z,995.6
2017-12-22T08:13:53.723Z,995.7
2017-12-22T08:14:56.179Z,995.6
2017-12-22T08:15:58.817Z,995.7
2017-12-22T08:17:01.350Z,995.7
2017-12-22T08:18:03.889Z,995.8
2017-12-22T08:19:06.370Z,995.7
2017-12-22T08:20:08.905Z,995.7
2017-12-22T08:21:11.596Z,995.8
2017-12-22T08:22:14.472Z,995.7
2017-12-22T08:23:16.957Z,995.8
2017-12-22T08:24:19.603Z,995.8
2017-12-22T08:25:22.020Z,995.8
2017-12-22T08:26:24.754Z,995.7
2017-12-22T08:27:27.325Z,995.7
2017-12-22T08:28:29.904Z,995.5
2017-12-22T08:29:32.349Z,995.7
2017-12-22T08:30:34.968Z,995.8
2017-12-22T08:31:37.610Z,995.8
2017-12-22T08:32:40.315Z,995.7
2017-12-22T08:33:42.868Z,995.8
2017-12-22T08:34:45.353Z,995.8
2017-12-22T08:35:47.888Z,995.8
2017-12-22T08:36:50.502Z,995.8
2017-12-22T08:37:53.059Z,995.9
2017-12-22T08:38:55.668Z,996
2017-12-22T08:39:58.098Z,995.9
2017-12-22T08:41:00.617Z,995.9
2017-12-22T08:42:03.235Z,995.9
2017-12-22T08:43:05.793Z,995.9
2017-12-22T08:44:08.980Z,995.9
2017-12-22T08:45:12.883Z,995.9
2017-12-22T08:46:15.852Z,995.9
2017-12-22T08:47:18.469Z,995.9
2017-12-22T08:48:21.100Z,995.9
2017-12-22T08:49:23.736Z,995.8
2017-12-22T08:50:26.329Z,995.9
2017-12-22T08:51:29.121Z,996
2017-12-22T08:52:31.834Z,996
2017-12-22T08:53:34.425Z,996.1
2017-12-22T08:54:37.043Z,996.1
2017-12-22T08:55:39.975Z,996.1
2017-12-22T08:56:42.531Z,996.2
2017-12-22T08:57:45.354Z,996.2
2017-12-22T08:58:47.889Z,996.2
2017-12-22T08:59:50.550Z,996.1
2017-12-22T09:00:53.107Z,996.1
2017-12-22T09:01:55.832Z,996.1
2017-12-22T09:02:58.449Z,996.1
2017-12-22T09:04:01.284Z,996.1
2017-12-22T09:05:03.809Z,996.1
2017-12-22T09:06:06.448Z,996.2
2017-12-22T09:07:09.104Z,996.1
2017-12-22T09:08:11.837Z,996.1
2017-12-22T09:09:14.315Z,996.2
2017-12-22T09:10:16.917Z,996.2
2017-12-22T09:11:19.598Z,996.2
2017-12-22T09:12:22.513Z,996.2
2017-12-22T09:13:25.077Z,996.3
2017-12-22T09:14:27.774Z,996.3
2017-12-22T09:15:30.413Z,996.3
2017-12-22T09:16:33.770Z,996.3
2017-12-22T09:17:36.502Z,996.2
2017-12-22T09:18:39.172Z,996.3
2017-12-22T09:19:41.892Z,996.3
2017-12-22T09:20:44.445Z,996.3
2017-12-22T09:21:47.088Z,996.3
2017-12-22T09:22:49.656Z,996.1
2017-12-22T09:23:52.236Z,996.3
2017-12-22T09:24:55.133Z,996.3
2017-12-22T09:25:57.682Z,996.3
2017-12-22T09:27:00.264Z,996.2
2017-12-22T09:28:03.333Z,996.1
2017-12-22T09:29:06.076Z,996.2
2017-12-22T09:30:08.879Z,996.2
2017-12-22T09:31:12.230Z,996.2
2017-12-22T09:32:14.800Z,996.2
2017-12-22T09:33:17.386Z,996.3
2017-12-22T09:34:20.064Z,996.3
2017-12-22T09:35:22.539Z,996.3
2017-12-22T09:36:25.108Z,996.3
2017-12-22T09:37:27.767Z,996.2
2017-12-22T09:38:30.352Z,996.4
2017-12-22T09:39:33.007Z,996.3
2017-12-22T09:40:35.614Z,996.3
2017-12-22T09:41:38.068Z,996.3
2017-12-22T09:42:41.866Z,996.4
2017-12-22T09:43:44.395Z,996.4
2017-12-22T09:44:46.835Z,996.5
2017-12-22T09:45:49.648Z,996.5
2017-12-22T09:46:52.439Z,996.5
2017-12-22T09:47:55.452Z,996.5
2017-12-22T09:48:59.129Z,996.5
2017-12-22T09:50:01.967Z,996.3
2017-12-22T09:51:04.668Z,996.4
2017-12-22T09:52:07.229Z,996.3
2017-12-22T09:53:09.783Z,996.4
2017-12-22T09:54:12.356Z,996.3
2017-12-22T09:55:14.854Z,996.3
2017-12-22T09:56:22.581Z,996.3
2017-12-22T09:57:25.279Z,996.3
2017-12-22T09:58:28.069Z,996.3
2017-12-22T09:59:30.818Z,996.3
2017-12-22T10:00:37.198Z,996.3
2017-12-22T10:01:39.850Z,996.3
2017-12-22T10:02:43.440Z,996.4
2017-12-22T10:03:45.928Z,996.4
2017-12-22T10:04:48.611Z,996.4
2017-12-22T10:05:51.334Z,996.4
2017-12-22T10:06:53.872Z,996.3
2017-12-22T10:07:56.483Z,996.4
2017-12-22T10:08:59.195Z,996.4
2017-12-22T10:10:02.411Z,996.4
2017-12-22T10:11:05.037Z,996.5
2017-12-22T10:12:07.846Z,996.3
2017-12-22T10:13:10.579Z,996.4
2017-12-22T10:14:13.205Z,996.4
2017-12-22T10:15:15.771Z,996.3
2017-12-22T10:16:18.364Z,996.3
2017-12-22T10:17:20.901Z,996.3
2017-12-22T10:18:23.582Z,996.1
2017-12-22T10:19:26.212Z,996.2
2017-12-22T10:20:28.879Z,996.1
2017-12-22T10:21:31.646Z,996.2
2017-12-22T10:22:34.214Z,996.2
2017-12-22T10:23:36.679Z,996.3
2017-12-22T10:24:39.912Z,996.2
2017-12-22T10:25:42.390Z,996.4
2017-12-22T10:26:45.035Z,996.3
2017-12-22T10:27:47.719Z,996.4
2017-12-22T10:28:53.478Z,996.2
2017-12-22T10:29:56.735Z,996.2
2017-12-22T10:31:00.077Z,996.1
2017-12-22T10:32:03.357Z,996.1
2017-12-22T10:33:05.997Z,996.1
2017-12-22T10:34:08.740Z,996.1
2017-12-22T10:35:11.578Z,996
2017-12-22T10:36:14.412Z,996.1
2017-12-22T10:37:17.551Z,996.1
2017-12-22T10:38:20.177Z,996.1
2017-12-22T10:39:22.806Z,996.1
2017-12-22T10:40:26.300Z,996
2017-12-22T10:41:29.111Z,996
2017-12-22T10:42:31.800Z,996
2017-12-22T10:43:34.334Z,996
2017-12-22T10:44:36.887Z,996
2017-12-22T10:45:39.493Z,996.1
2017-12-22T10:46:43.119Z,996
2017-12-22T10:47:45.808Z,996
2017-12-22T10:48:48.400Z,996
2017-12-22T10:49:51.182Z,995.9
2017-12-22T10:50:53.921Z,995.9
2017-12-22T10:51:59.435Z,995.9
2017-12-22T10:53:02.239Z,995.8
2017-12-22T10:54:04.836Z,995.9
2017-12-22T10:55:07.412Z,995.9
2017-12-22T10:56:10.236Z,995.9
2017-12-22T10:57:14.029Z,996
2017-12-22T10:58:16.654Z,996
2017-12-22T10:59:19.847Z,996
2017-12-22T11:00:22.597Z,996
2017-12-22T11:01:25.214Z,995.8
2017-12-22T11:02:27.939Z,995.9
2017-12-22T11:03:30.659Z,996
2017-12-22T11:04:34.494Z,996
2017-12-22T11:05:37.368Z,995.9
2017-12-22T11:06:40.223Z,995.9
2017-12-22T11:07:44.985Z,995.9
2017-12-22T11:08:47.756Z,995.8
2017-12-22T11:09:50.555Z,995.8
2017-12-22T11:10:53.305Z,995.8
2017-12-22T11:11:55.843Z,995.8
2017-12-22T11:12:58.360Z,995.8
2017-12-22T11:14:01.493Z,995.8
2017-12-22T11:15:04.161Z,995.9
2017-12-22T11:16:06.757Z,995.9
2017-12-22T11:17:12.426Z,995.9
2017-12-22T11:18:15.102Z,995.9
2017-12-22T11:19:18.406Z,995.6
2017-12-22T11:20:21.107Z,995.7
2017-12-22T11:21:23.700Z,995.9
2017-12-22T11:22:26.335Z,995.9
2017-12-22T11:23:28.969Z,996
2017-12-22T11:24:35.848Z,995.9
2017-12-22T11:25:38.701Z,996.1
2017-12-22T11:26:41.508Z,996.1
2017-12-22T11:27:44.187Z,996.1
2017-12-22T11:28:47.304Z,996
2017-12-22T11:29:50.130Z,996.1
2017-12-22T11:30:52.657Z,996.1
2017-12-22T11:31:55.358Z,996.1
2017-12-22T11:32:57.969Z,996.1
2017-12-22T11:34:00.869Z,996.1
2017-12-22T11:35:04.555Z,995.8
2017-12-22T11:36:07.323Z,996.1
2017-12-22T11:37:13.646Z,996
2017-12-22T11:38:16.171Z,996.1
2017-12-22T11:39:18.837Z,996.1
2017-12-22T11:40:21.745Z,996.1
2017-12-22T11:41:24.408Z,996.2
2017-12-22T11:42:26.981Z,996.2
2017-12-22T11:43:29.515Z,996.2
2017-12-22T11:44:32.213Z,996.1
2017-12-22T11:45:34.735Z,996.1
2017-12-22T11:46:39.659Z,996.1
2017-12-22T11:47:42.694Z,996.1
2017-12-22T11:48:45.297Z,996.1
2017-12-22T11:49:47.919Z,996.1
2017-12-22T11:50:50.679Z,996
2017-12-22T11:51:53.270Z,996.1
2017-12-22T11:52:55.851Z,996.1
2017-12-22T11:54:01.915Z,996.1
2017-12-22T11:55:04.625Z,996
2017-12-22T11:56:07.367Z,996
2017-12-22T11:57:10.150Z,996
2017-12-22T11:58:12.888Z,995.9
2017-12-22T11:59:15.563Z,996
2017-12-22T12:00:18.194Z,995.9
2017-12-22T12:01:20.980Z,996
2017-12-22T12:02:23.643Z,995.9
2017-12-22T12:03:26.914Z,996
2017-12-22T12:04:29.548Z,996
2017-12-22T12:05:32.490Z,995.9
2017-12-22T12:06:35.231Z,995.9
2017-12-22T12:07:37.905Z,996
2017-12-22T12:08:40.794Z,995.7
2017-12-22T12:09:43.379Z,996
2017-12-22T12:10:45.915Z,996
2017-12-22T12:11:48.601Z,995.9
2017-12-22T12:12:51.485Z,996
2017-12-22T12:13:55.025Z,995.9
2017-12-22T12:14:59.070Z,995.8
2017-12-22T12:16:01.934Z,996
2017-12-22T12:17:04.814Z,995.8
2017-12-22T12:18:07.485Z,995.9
2017-12-22T12:19:10.337Z,995.9
2017-12-22T12:20:13.434Z,995.9
2017-12-22T12:21:16.010Z,995.9
2017-12-22T12:22:18.596Z,995.9
2017-12-22T12:23:21.189Z,995.9
2017-12-22T12:24:23.874Z,995.9
2017-12-22T12:25:26.611Z,995.8
2017-12-22T12:26:29.527Z,995.9
2017-12-22T12:27:32.154Z,995.9
2017-12-22T12:28:34.641Z,995.9
2017-12-22T12:29:37.174Z,995.9
2017-12-22T12:30:39.784Z,995.9
2017-12-22T12:31:42.860Z,995.9
2017-12-22T12:32:49.536Z,995.9
2017-12-22T12:33:52.271Z,996
2017-12-22T12:34:55.532Z,995.8
2017-12-22T12:35:58.945Z,996
2017-12-22T12:38:25.195Z,996
